Time;durP1;ratioP1;P1;durP2;ratioP2;P2;SDS_P1;SDS_P2;PMS_P1;PMS_P2;Temp;Humidity;BMP_temperature;BMP_pressure;BME280_temperature;BME280_humidity;BME280_pressure;Samples;Min_cycle;Max_cycle;Signal;HPM_P1;HPM_P2
2021/06/03 00:01:04;;;;;;;4.65;3.22;;;;;;;12.00;62.33;100393.28;1722426;83;21068;-71
2021/06/03 00:03:35;;;;;;;8.73;3.50;;;;;;;11.95;61.62;100383.76;1727698;83;21057;-71
2021/06/03 00:06:09;;;;;;;8.63;3.22;;;;;;;11.92;61.86;100386.53;1727489;82;21600;-71
2021/06/03 00:08:32;;;;;;;6.72;3.27;;;;;;;11.90;61.15;100387.51;1720182;81;21152;-71
2021/06/03 00:11:07;;;;;;;8.38;3.20;;;;;;;11.86;63.61;100386.72;1715312;83;21046;-73
2021/06/03 00:13:38;;;;;;;6.55;3.15;;;;;;;11.83;62.85;100392.13;1706182;81;21065;-78
2021/06/03 00:16:09;;;;;;;8.25;3.30;;;;;;;11.79;61.87;100387.02;1712424;83;21143;-77
2021/06/03 00:18:38;;;;;;;9.48;3.60;;;;;;;11.74;63.84;100391.16;1685147;85;21066;-79
2021/06/03 00:21:06;;;;;;;7.15;3.70;;;;;;;11.70;61.93;100389.08;1612751;87;21109;-79
2021/06/03 00:23:33;;;;;;;7.28;3.42;;;;;;;11.72;61.71;100389.03;1682376;85;21593;-79
2021/06/03 00:26:00;;;;;;;8.58;3.35;;;;;;;11.71;65.16;100385.53;1665504;86;21087;-79
2021/06/03 00:28:28;;;;;;;6.72;3.17;;;;;;;11.72;61.77;100390.34;1666929;83;21155;-82
2021/06/03 00:30:55;;;;;;;8.33;3.42;;;;;;;11.74;62.16;100388.52;1630011;87;21109;-83
2021/06/03 00:33:24;;;;;;;5.95;3.17;;;;;;;11.74;61.90;100383.23;1622830;88;21053;-81
2021/06/03 00:35:52;;;;;;;9.78;3.60;;;;;;;11.76;60.69;100395.92;1618067;88;21083;-81
2021/06/03 00:38:19;;;;;;;6.17;3.20;;;;;;;11.82;61.87;100390.39;1618343;88;21061;-81
2021/06/03 00:40:47;;;;;;;5.30;3.42;;;;;;;11.86;60.60;100384.08;1619204;88;21166;-80
2021/06/03 00:43:15;;;;;;;6.72;3.30;;;;;;;11.87;61.74;100384.94;1681092;81;21094;-73
2021/06/03 00:45:43;;;;;;;12.45;3.52;;;;;;;11.85;61.78;100382.38;1754406;81;21025;-72
2021/06/03 00:48:11;;;;;;;7.60;2.98;;;;;;;11.84;60.82;100387.70;1754628;81;21068;-71
2021/06/03 00:50:41;;;;;;;13.58;3.35;;;;;;;11.83;61.94;100389.48;1754523;81;21057;-70
2021/06/03 00:53:13;;;;;;;5.37;3.00;;;;;;;11.80;60.96;100380.38;1756852;81;21122;-71
2021/06/03 00:55:44;;;;;;;7.22;3.20;;;;;;;11.79;60.66;100394.94;1740756;81;21071;-71
2021/06/03 00:58:15;;;;;;;11.75;3.30;;;;;;;11.74;61.89;100393.33;1673107;80;21161;-77
2021/06/03 01:00:42;;;;;;;8.70;3.20;;;;;;;11.73;60.12;100396.02;1627330;88;21058;-76
2021/06/03 01:03:11;;;;;;;8.13;3.15;;;;;;;11.73;60.60;100389.41;1643593;86;21115;-73
2021/06/03 01:05:47;;;;;;;10.68;3.50;;;;;;;11.72;61.04;100391.67;1630842;86;21160;-74
2021/06/03 01:08:19;;;;;;;13.30;3.27;;;;;;;11.72;60.16;100389.03;1630574;88;21138;-73
2021/06/03 01:11:00;;;;;;;9.85;3.52;;;;;;;11.72;62.95;100390.34;1610110;88;21067;-71
2021/06/03 01:13:57;;;;;;;8.80;3.50;;;;;;;11.68;60.91;100396.65;1641439;81;21345;-70
2021/06/03 01:16:26;;;;;;;8.05;3.17;;;;;;;11.65;60.48;100390.18;1571730;89;21116;-70
2021/06/03 01:18:56;;;;;;;7.05;3.45;;;;;;;11.60;60.82;100385.08;1652562;86;21203;-72
2021/06/03 01:21:33;;;;;;;11.63;3.50;;;;;;;11.58;60.78;100391.33;1636508;87;21106;-72
2021/06/03 01:24:29;;;;;;;8.58;3.40;;;;;;;11.55;60.41;100390.52;1666880;84;21144;-71
2021/06/03 01:27:17;;;;;;;11.03;3.35;;;;;;;11.52;61.09;100400.31;1666686;86;21097;-72
2021/06/03 01:29:53;;;;;;;10.90;3.27;;;;;;;11.46;61.07;100398.77;1636888;87;21698;-70
2021/06/03 01:32:22;;;;;;;11.63;3.58;;;;;;;11.43;60.89;100396.22;1667215;81;21122;-77
2021/06/03 01:34:52;;;;;;;13.75;4.17;;;;;;;11.39;62.43;100399.91;1641777;86;21101;-78
2021/06/03 01:37:19;;;;;;;10.63;3.08;;;;;;;11.38;62.70;100396.85;1621721;87;21045;-81
2021/06/03 01:39:48;;;;;;;6.90;3.60;;;;;;;11.37;61.38;100395.15;1677364;85;21054;-87
2021/06/03 01:42:17;;;;;;;10.58;3.20;;;;;;;11.35;61.83;100403.56;1677265;85;21534;-85
2021/06/03 01:44:46;;;;;;;9.10;3.75;;;;;;;11.36;61.43;100394.73;1677478;85;21890;-86
2021/06/03 01:47:15;;;;;;;7.65;3.67;;;;;;;11.39;61.74;100398.59;1673131;81;21069;-77
2021/06/03 01:49:44;;;;;;;5.90;3.20;;;;;;;11.42;64.85;100395.83;1725444;83;21938;-77
2021/06/03 01:52:13;;;;;;;7.10;3.22;;;;;;;11.43;61.71;100402.81;1724669;83;21697;-76
2021/06/03 01:54:42;;;;;;;5.55;3.02;;;;;;;11.45;62.10;100397.03;1724973;83;21050;-77
2021/06/03 01:57:11;;;;;;;8.15;3.80;;;;;;;11.46;61.90;100396.59;1747777;82;21192;-75
2021/06/03 01:59:42;;;;;;;7.25;3.25;;;;;;;11.46;61.20;100400.09;1749390;81;21575;-76
2021/06/03 02:02:11;;;;;;;8.33;3.05;;;;;;;11.46;61.50;100393.96;1726018;79;21064;-77
2021/06/03 02:04:40;;;;;;;6.60;3.22;;;;;;;11.47;60.06;100396.52;1659645;86;21109;-77
2021/06/03 02:07:09;;;;;;;8.35;4.00;;;;;;;11.50;60.19;100392.47;1659897;84;21045;-77
2021/06/03 02:09:37;;;;;;;6.92;3.45;;;;;;;11.53;60.63;100398.09;1660412;86;21140;-75
2021/06/03 02:12:09;;;;;;;7.03;3.30;;;;;;;11.52;59.63;100409.08;1660623;84;21093;-76
2021/06/03 02:14:40;;;;;;;10.65;3.37;;;;;;;11.55;63.02;100398.44;1661089;84;21056;-76
2021/06/03 02:17:19;;;;;;;15.60;3.45;;;;;;;11.53;60.70;100404.22;1665413;81;21092;-80
2021/06/03 02:20:11;;;;;;;10.93;3.37;;;;;;;11.54;60.22;100407.25;1730914;82;21144;-83
2021/06/03 02:22:38;;;;;;;6.05;3.10;;;;;;;11.55;62.83;100404.17;1702668;82;21803;-82
2021/06/03 02:25:08;;;;;;;11.50;3.80;;;;;;;11.58;60.62;100401.88;1702656;84;21059;-82
2021/06/03 02:27:36;;;;;;;12.18;3.20;;;;;;;11.60;60.17;100407.97;1674307;84;21083;-83
2021/06/03 02:30:07;;;;;;;15.80;3.75;;;;;;;11.62;62.10;100403.46;1708638;82;21104;-82
2021/06/03 02:32:35;;;;;;;9.95;3.45;;;;;;;11.63;60.33;100413.11;1738013;77;21569;-78
2021/06/03 02:35:07;;;;;;;9.05;3.58;;;;;;;11.64;61.06;100422.73;1744887;82;21496;-78
2021/06/03 02:37:38;;;;;;;11.50;3.45;;;;;;;11.66;61.03;100412.99;1749431;82;21099;-77
2021/06/03 02:40:14;;;;;;;13.35;3.60;;;;;;;11.69;60.25;100418.17;1749858;82;21068;-84
2021/06/03 02:42:42;;;;;;;6.80;3.85;;;;;;;11.73;60.96;100418.44;1749770;82;21068;-84
2021/06/03 02:45:16;;;;;;;7.55;3.35;;;;;;;11.78;60.11;100425.75;1750171;82;21016;-84
2021/06/03 02:47:44;;;;;;;10.90;3.12;;;;;;;11.83;59.91;100417.66;1743047;79;21357;-80
2021/06/03 02:50:13;;;;;;;14.65;3.75;;;;;;;11.89;62.12;100418.33;1729184;83;21013;-82
2021/06/03 02:52:42;;;;;;;11.05;4.08;;;;;;;11.96;59.30;100419.81;1723860;83;21079;-80
2021/06/03 02:55:14;;;;;;;5.10;3.12;;;;;;;12.06;60.69;100422.09;1718854;83;21040;-81
2021/06/03 02:57:41;;;;;;;6.22;3.40;;;;;;;12.15;60.98;100421.73;1718828;82;21076;-80
2021/06/03 03:00:20;;;;;;;4.10;2.90;;;;;;;12.23;58.75;100422.28;1716999;82;21174;-81
2021/06/03 03:02:47;;;;;;;10.10;3.22;;;;;;;12.31;62.18;100420.22;1711535;78;21033;-85
2021/06/03 03:05:14;;;;;;;11.03;3.33;;;;;;;12.41;58.97;100419.84;1709443;83;21025;-81
2021/06/03 03:07:42;;;;;;;4.97;3.33;;;;;;;12.51;57.88;100429.11;1691341;83;21348;-82
2021/06/03 03:10:17;;;;;;;6.62;3.00;;;;;;;12.59;58.37;100419.11;1697294;84;21182;-81
2021/06/03 03:12:44;;;;;;;8.45;3.35;;;;;;;12.69;57.21;100420.44;1680668;85;21812;-73
2021/06/03 03:15:14;;;;;;;7.37;3.37;;;;;;;12.78;56.80;100421.84;1679314;85;21117;-84
2021/06/03 03:17:41;;;;;;;9.78;3.40;;;;;;;12.89;56.96;100424.05;1714970;79;21137;-75
2021/06/03 03:20:12;;;;;;;5.72;3.00;;;;;;;12.98;56.48;100421.88;1749629;81;21648;-75
2021/06/03 03:22:41;;;;;;;8.18;2.95;;;;;;;13.12;56.76;100423.93;1729986;82;21668;-75
2021/06/03 03:25:10;;;;;;;6.58;3.47;;;;;;;13.24;57.92;100426.50;1738223;82;21122;-73
2021/06/03 03:27:38;;;;;;;8.18;3.27;;;;;;;13.35;56.29;100419.47;1708682;82;22199;-74
2021/06/03 03:30:07;;;;;;;5.17;3.20;;;;;;;13.48;56.51;100418.45;1745189;81;21069;-75
2021/06/03 03:32:35;;;;;;;9.78;3.40;;;;;;;13.58;54.49;100419.30;1760594;79;21072;-80
2021/06/03 03:35:02;;;;;;;11.33;3.17;;;;;;;13.71;55.55;100421.38;1777870;80;21796;-81
2021/06/03 03:37:32;;;;;;;6.80;2.95;;;;;;;13.85;55.56;100425.61;1780675;80;21132;-80
2021/06/03 03:40:01;;;;;;;4.53;3.10;;;;;;;13.99;53.97;100423.17;1780995;80;21525;-81
2021/06/03 03:42:30;;;;;;;8.58;3.42;;;;;;;14.15;54.28;100421.11;1780941;79;21567;-80
2021/06/03 03:44:57;;;;;;;4.70;2.90;;;;;;;14.29;53.28;100422.66;1781024;79;21037;-79
2021/06/03 03:47:26;;;;;;;14.40;3.15;;;;;;;14.46;52.54;100427.99;1754134;79;21576;-85
2021/06/03 03:49:54;;;;;;;8.60;2.98;;;;;;;14.62;53.17;100426.81;1670222;83;21143;-79
2021/06/03 03:52:37;;;;;;;5.80;2.70;;;;;;;14.80;51.52;100422.41;1689793;83;21041;-80
2021/06/03 03:55:11;;;;;;;8.15;2.92;;;;;;;14.96;51.82;100422.49;1692749;83;21132;-81
2021/06/03 03:57:38;;;;;;;9.35;2.90;;;;;;;15.14;51.24;100416.73;1725508;82;21163;-81
2021/06/03 04:00:16;;;;;;;8.78;3.02;;;;;;;15.26;50.16;100417.41;1716592;81;20997;-79
2021/06/03 04:02:47;;;;;;;13.55;3.15;;;;;;;15.41;50.84;100418.86;1720945;81;22005;-75
2021/06/03 04:05:18;;;;;;;12.90;2.98;;;;;;;15.51;49.61;100421.44;1729849;82;21063;-76
2021/06/03 04:07:46;;;;;;;10.13;3.02;;;;;;;15.56;48.91;100427.36;1735084;79;21622;-75
2021/06/03 04:10:20;;;;;;;9.43;2.95;;;;;;;15.62;49.16;100434.13;1742607;81;21661;-72
2021/06/03 04:12:50;;;;;;;5.05;2.70;;;;;;;15.71;48.59;100436.32;1734995;81;21106;-74
2021/06/03 04:15:18;;;;;;;9.68;3.27;;;;;;;15.84;49.39;100439.19;1733084;81;21134;-73
2021/06/03 04:17:47;;;;;;;9.05;3.02;;;;;;;15.99;48.46;100434.38;1749709;79;21065;-75
2021/06/03 04:20:20;;;;;;;6.55;2.92;;;;;;;16.10;47.80;100437.31;1752927;80;21073;-73
2021/06/03 04:22:49;;;;;;;9.63;2.95;;;;;;;16.24;47.93;100436.99;1754168;80;21061;-76
2021/06/03 04:25:18;;;;;;;7.42;2.20;;;;;;;16.37;46.82;100432.72;1741167;81;21603;-78
2021/06/03 04:27:45;;;;;;;4.00;2.92;;;;;;;16.48;46.32;100440.94;1747718;82;21091;-79
2021/06/03 04:30:16;;;;;;;6.65;2.52;;;;;;;16.55;48.29;100440.13;1761527;80;21084;-79
2021/06/03 04:32:43;;;;;;;5.90;2.87;;;;;;;16.69;46.37;100436.20;1770605;79;21621;-71
2021/06/03 04:35:11;;;;;;;5.70;2.80;;;;;;;16.88;46.11;100436.02;1733686;79;21070;-70
2021/06/03 04:37:40;;;;;;;3.62;2.60;;;;;;;17.05;45.88;100443.50;1752032;80;21074;-70
2021/06/03 04:40:09;;;;;;;7.45;2.95;;;;;;;17.12;44.61;100440.86;1763186;79;21141;-70
2021/06/03 04:42:37;;;;;;;6.12;2.80;;;;;;;17.22;45.37;100437.17;1760981;80;21048;-71
2021/06/03 04:45:07;;;;;;;5.28;3.12;;;;;;;17.36;44.67;100433.20;1760980;80;21031;-71
2021/06/03 04:47:35;;;;;;;7.53;2.77;;;;;;;17.43;43.78;100441.19;1765440;79;21119;-72
2021/06/03 04:50:02;;;;;;;8.10;2.65;;;;;;;17.50;43.79;100441.68;1787785;79;21053;-71
2021/06/03 04:52:29;;;;;;;8.55;2.67;;;;;;;17.61;43.81;100444.06;1786788;79;21716;-71
2021/06/03 04:54:59;;;;;;;6.40;2.65;;;;;;;17.79;43.56;100436.75;1769473;78;21041;-72
2021/06/03 04:57:27;;;;;;;7.58;2.58;;;;;;;17.95;43.19;100446.49;1750565;81;21524;-71
2021/06/03 04:59:54;;;;;;;19.27;3.10;;;;;;;18.14;42.44;100439.03;1720945;83;21144;-71
2021/06/03 05:02:21;;;;;;;7.15;2.67;;;;;;;18.30;42.01;100438.91;1746852;80;20879;-77
2021/06/03 05:04:49;;;;;;;7.30;2.60;;;;;;;18.46;42.06;100442.78;1759237;80;21077;-79
2021/06/03 05:07:17;;;;;;;10.08;2.72;;;;;;;18.57;41.40;100441.60;1740001;79;21657;-78
2021/06/03 05:09:44;;;;;;;7.37;2.92;;;;;;;18.71;41.55;100439.84;1759233;81;21035;-78
2021/06/03 05:12:12;;;;;;;6.42;2.50;;;;;;;18.95;41.46;100435.55;1738448;81;21042;-77
2021/06/03 05:14:41;;;;;;;6.90;2.87;;;;;;;19.27;40.56;100436.53;1736303;81;21559;-79
2021/06/03 05:17:14;;;;;;;5.28;2.22;;;;;;;19.54;40.41;100434.27;1725705;80;21507;-77
2021/06/03 05:19:43;;;;;;;8.00;2.80;;;;;;;19.74;38.43;100436.42;1750430;81;21085;-71
2021/06/03 05:22:11;;;;;;;5.55;2.30;;;;;;;19.89;40.48;100438.00;1743359;80;21710;-71
2021/06/03 05:24:39;;;;;;;7.03;2.60;;;;;;;20.11;38.78;100443.16;1762361;81;21028;-71
2021/06/03 05:27:07;;;;;;;12.45;2.65;;;;;;;20.35;37.63;100437.00;1725549;82;21119;-71
2021/06/03 05:29:35;;;;;;;6.42;2.50;;;;;;;20.52;37.58;100433.91;1722462;82;21867;-71
2021/06/03 05:32:22;;;;;;;5.03;2.55;;;;;;;20.64;36.38;100442.42;1718794;83;21112;-70
2021/06/03 05:34:49;;;;;;;8.33;2.20;;;;;;;20.70;36.34;100436.59;1673412;84;21097;-71
2021/06/03 05:37:16;;;;;;;8.33;3.02;;;;;;;20.78;36.87;100441.40;1748410;81;21105;-71
2021/06/03 05:39:43;;;;;;;5.40;2.30;;;;;;;21.04;36.31;100438.08;1728841;81;21627;-72
2021/06/03 05:42:13;;;;;;;5.08;2.20;;;;;;;21.27;35.36;100439.50;1716511;83;21100;-73
2021/06/03 05:44:40;;;;;;;2.93;2.13;;;;;;;21.36;35.25;100441.47;1710826;83;21073;-72
2021/06/03 05:47:27;;;;;;;11.65;2.60;;;;;;;21.51;34.99;100448.36;1711161;81;21643;-72
2021/06/03 05:49:54;;;;;;;14.87;3.37;;;;;;;21.64;34.77;100452.25;1682799;83;21112;-79
2021/06/03 05:52:21;;;;;;;8.88;2.42;;;;;;;21.73;33.57;100454.70;1682909;84;21099;-77
2021/06/03 05:54:51;;;;;;;8.75;1.92;;;;;;;21.79;33.74;100451.55;1663604;85;21093;-78
2021/06/03 05:57:19;;;;;;;5.95;2.30;;;;;;;21.86;33.83;100452.77;1666253;86;21579;-80
2021/06/03 05:59:45;;;;;;;7.22;2.30;;;;;;;21.84;33.12;100460.08;1666258;86;21045;-81
2021/06/03 06:03:21;;;;;;;10.85;2.75;;;;;;;21.76;33.75;100457.14;1667801;85;21144;-79
2021/06/03 06:07:47;;;;;;;8.03;2.08;;;;;;;21.92;32.90;100446.90;1665859;85;21172;-71
2021/06/03 06:10:16;;;;;;;5.12;2.15;;;;;;;21.83;33.27;100454.83;1663044;86;21566;-71
2021/06/03 06:12:43;;;;;;;11.75;2.90;;;;;;;21.74;33.14;100459.08;1666310;85;21076;-70
2021/06/03 06:15:12;;;;;;;7.17;2.20;;;;;;;21.65;33.46;100467.84;1667094;86;22162;-71
2021/06/03 06:17:39;;;;;;;8.93;2.27;;;;;;;21.62;33.40;100447.99;1640348;81;20890;-71
2021/06/03 06:20:08;;;;;;;7.50;2.35;;;;;;;21.67;33.26;100457.86;1696974;84;21124;-73
2021/06/03 06:22:37;;;;;;;8.30;2.62;;;;;;;21.84;33.47;100453.38;1664855;84;21573;-72
2021/06/03 06:25:05;;;;;;;7.97;2.60;;;;;;;22.17;33.63;100455.67;1662811;86;21077;-72
2021/06/03 06:27:32;;;;;;;6.45;2.02;;;;;;;22.50;32.39;100449.91;1654626;85;21088;-72
2021/06/03 06:29:59;;;;;;;13.48;2.10;;;;;;;22.67;32.07;100449.88;1690408;84;21102;-72
2021/06/03 06:32:46;;;;;;;6.95;2.22;;;;;;;22.68;30.80;100445.70;1682206;83;22161;-73
2021/06/03 06:35:13;;;;;;;11.68;2.00;;;;;;;22.50;31.24;100453.94;1761757;81;21102;-77
2021/06/03 06:37:40;;;;;;;6.50;2.42;;;;;;;22.47;32.13;100448.83;1759112;80;21076;-77
2021/06/03 06:40:08;;;;;;;13.53;2.90;;;;;;;22.61;31.87;100455.25;1757383;81;21025;-77
2021/06/03 06:42:35;;;;;;;6.08;2.50;;;;;;;22.89;31.61;100447.13;1747458;81;21036;-76
2021/06/03 06:45:04;;;;;;;7.85;2.50;;;;;;;23.09;31.32;100450.83;1754661;80;21105;-80
2021/06/03 06:47:35;;;;;;;12.90;2.67;;;;;;;23.33;31.24;100443.00;1747326;79;21574;31
2021/06/03 06:50:07;;;;;;;7.65;2.30;;;;;;;23.69;31.01;100444.84;1700429;83;21097;-73
2021/06/03 06:52:34;;;;;;;5.47;2.33;;;;;;;23.98;30.16;100447.21;1710947;82;21135;-72
2021/06/03 06:55:04;;;;;;;10.95;2.70;;;;;;;24.20;30.60;100454.71;1700850;82;21036;-77
2021/06/03 06:57:31;;;;;;;17.98;2.65;;;;;;;24.41;28.48;100446.08;1708642;82;21525;-76
2021/06/03 06:59:58;;;;;;;7.80;2.00;;;;;;;24.36;28.75;100451.00;1704574;82;21034;-77
2021/06/03 07:02:36;;;;;;;;;;;;;;;;;;;;;
2021/06/03 07:05:09;;;;;;;6.87;2.02;;;;;;;23.88;29.15;100450.37;1734747;81;21056;-74
2021/06/03 07:07:37;;;;;;;7.65;2.15;;;;;;;23.78;29.48;100453.48;1727266;81;21129;-74
2021/06/03 07:10:06;;;;;;;8.28;2.00;;;;;;;23.88;29.56;100446.34;1726933;81;21124;-72
2021/06/03 07:12:35;;;;;;;12.98;2.50;;;;;;;24.02;28.84;100448.65;1726009;83;21034;-74
2021/06/03 07:15:03;;;;;;;10.88;2.35;;;;;;;24.18;29.24;100448.61;1725379;83;21100;-73
2021/06/03 07:17:42;;;;;;;4.42;2.15;;;;;;;24.29;29.19;100442.66;1725514;83;21742;-73
2021/06/03 07:20:13;;;;;;;9.68;2.15;;;;;;;24.48;27.81;100445.06;1719928;81;21584;-77
2021/06/03 07:22:42;;;;;;;3.55;2.12;;;;;;;24.49;28.68;100446.25;1716715;82;21100;-76
2021/06/03 07:25:12;;;;;;;4.00;2.15;;;;;;;24.63;27.74;100446.84;1679301;84;26977;-77
2021/06/03 07:27:39;;;;;;;9.73;2.00;;;;;;;24.64;27.88;100440.45;1730918;82;21066;-77
2021/06/03 07:30:08;;;;;;;16.48;2.70;;;;;;;24.71;27.12;100448.35;1735280;81;21077;-75
2021/06/03 07:33:00;;;;;;;9.20;2.05;;;;;;;24.84;27.51;100446.21;1718636;82;21073;-76
2021/06/03 07:35:27;;;;;;;13.40;2.40;;;;;;;24.72;26.52;100441.96;1692883;83;21530;-75
2021/06/03 07:37:56;;;;;;;11.55;2.00;;;;;;;24.54;27.41;100449.02;1696876;83;21195;-75
2021/06/03 07:40:29;;;;;;;13.55;2.00;;;;;;;24.66;26.80;100442.52;1715163;83;21014;-75
2021/06/03 07:42:57;;;;;;;16.93;2.70;;;;;;;24.73;27.17;100445.50;1697450;83;21085;-74
2021/06/03 07:45:27;;;;;;;11.65;2.15;;;;;;;24.72;26.79;100451.39;1711676;82;21058;-75
2021/06/03 07:47:56;;;;;;;7.83;2.15;;;;;;;24.54;26.32;100446.33;1696344;78;21837;-73
2021/06/03 07:50:23;;;;;;;9.48;2.10;;;;;;;24.38;26.69;100449.52;1712002;81;21111;-74
2021/06/03 07:52:50;;;;;;;4.60;1.45;;;;;;;24.49;27.29;100442.71;1723274;83;21057;-73
2021/06/03 07:55:17;;;;;;;4.92;1.95;;;;;;;24.79;26.47;100451.17;1714936;81;21052;-74
2021/06/03 07:57:49;;;;;;;6.50;2.10;;;;;;;25.04;26.59;100428.21;1733853;82;21083;-76
2021/06/03 08:00:17;;;;;;;8.00;2.33;;;;;;;25.16;26.13;100424.86;1691102;80;21784;-76
2021/06/03 08:02:53;;;;;;;12.37;2.92;;;;;;;25.26;26.24;100429.78;1688055;84;21614;-76
2021/06/03 08:05:22;;;;;;;12.80;2.27;;;;;;;25.30;25.50;100446.00;1772835;79;21291;-74
2021/06/03 08:07:50;;;;;;;8.43;2.20;;;;;;;25.34;25.53;100449.27;1772096;79;21071;-76
2021/06/03 08:10:20;;;;;;;8.93;2.00;;;;;;;25.52;26.28;100445.34;1771330;79;21507;-75
2021/06/03 08:12:50;;;;;;;20.62;2.60;;;;;;;25.82;25.52;100438.01;1786411;79;21126;-74
2021/06/03 08:15:17;;;;;;;9.68;2.02;;;;;;;25.95;24.71;100442.09;1768446;79;21044;-74
2021/06/03 08:18:05;;;;;;;3.92;1.67;;;;;;;25.92;24.45;100445.08;1764658;79;21049;-74
2021/06/03 08:20:37;;;;;;;7.05;1.65;;;;;;;25.84;25.21;100438.71;1694962;83;22011;-73
2021/06/03 08:23:07;;;;;;;5.03;1.80;;;;;;;25.96;24.36;100433.50;1705240;82;21729;-72
2021/06/03 08:25:35;;;;;;;9.13;1.80;;;;;;;25.92;25.87;100432.09;1708323;82;21812;-73
2021/06/03 08:28:03;;;;;;;5.28;1.80;;;;;;;26.02;24.96;100436.95;1701463;82;21101;-71
2021/06/03 08:30:34;;;;;;;10.72;1.82;;;;;;;26.18;24.20;100438.14;1669708;84;21706;-73
2021/06/03 08:33:01;;;;;;;10.13;2.52;;;;;;;26.32;23.93;100448.45;1723159;81;21112;-72
2021/06/03 08:35:27;;;;;;;18.95;2.10;;;;;;;26.48;23.78;100432.43;1736281;81;21697;-75
2021/06/03 08:37:57;;;;;;;7.72;1.90;;;;;;;26.77;24.55;100439.48;1728264;81;21117;-75
2021/06/03 08:40:27;;;;;;;10.53;2.30;;;;;;;27.10;23.30;100433.02;1733329;81;21089;-76
2021/06/03 08:42:56;;;;;;;9.33;1.60;;;;;;;27.29;22.66;100451.80;1733212;81;21573;-76
2021/06/03 08:45:25;;;;;;;7.47;1.72;;;;;;;27.27;22.67;100433.53;1733805;81;21061;-75
2021/06/03 08:48:13;;;;;;;7.17;2.02;;;;;;;27.29;21.94;100430.17;1743151;81;21578;-75
2021/06/03 08:50:43;;;;;;;9.65;1.80;;;;;;;27.43;21.63;100435.51;1703905;83;21275;-75
2021/06/03 08:53:14;;;;;;;9.33;1.98;;;;;;;27.18;21.72;100442.55;1727676;83;21044;-75
2021/06/03 08:58:27;;;;;;;7.47;1.80;;;;;;;26.10;23.30;100438.90;1717452;83;21116;-77
2021/06/03 09:00:55;;;;;;;9.08;1.85;;;;;;;25.54;23.61;100443.34;1717063;83;21061;-76
2021/06/03 09:03:27;;;;;;;12.55;1.40;;;;;;;25.19;24.40;100440.80;1713846;81;21086;-75
2021/06/03 09:05:55;;;;;;;10.28;1.80;;;;;;;25.00;23.96;100442.11;1651051;86;21102;-76
2021/06/03 09:08:33;;;;;;;16.75;2.67;;;;;;;24.78;23.92;100440.06;1647167;86;21623;-76
2021/06/03 09:11:14;;;;;;;20.77;2.27;;;;;;;24.83;23.49;100439.14;1647749;86;21106;-76
2021/06/03 09:13:49;;;;;;;14.58;1.55;;;;;;;24.93;22.76;100438.28;1651210;84;21822;-77
2021/06/03 09:16:19;;;;;;;12.15;1.67;;;;;;;24.96;22.21;100436.17;1648212;86;21153;-77
2021/06/03 09:18:52;;;;;;;10.15;1.80;;;;;;;25.04;22.07;100435.45;1675675;79;21635;-73
2021/06/03 09:21:27;;;;;;;25.32;2.37;;;;;;;24.99;22.94;100432.34;1752485;80;21029;-75
2021/06/03 09:24:05;;;;;;;27.40;3.10;;;;;;;24.62;24.06;100441.11;1761555;80;21017;-73
2021/06/03 09:26:33;;;;;;;7.05;2.25;;;;;;;24.28;24.84;100450.35;1761509;80;20989;-73
2021/06/03 09:29:01;;;;;;;9.13;1.87;;;;;;;23.82;24.93;100456.28;1762979;79;21108;-78
2021/06/03 09:31:30;;;;;;;3.42;1.75;;;;;;;23.47;25.45;100446.72;1767628;79;20873;-78
2021/06/03 09:34:04;;;;;;;8.50;2.00;;;;;;;23.36;26.29;100446.79;1747356;79;21390;-81
2021/06/03 09:36:54;;;;;;;6.22;1.62;;;;;;;23.49;25.98;100439.38;1714904;82;21097;-81
2021/06/03 09:39:32;;;;;;;5.97;2.30;;;;;;;23.84;26.58;100443.55;1712660;82;21645;-82
2021/06/03 09:42:04;;;;;;;5.25;1.75;;;;;;;24.16;25.78;100445.23;1712214;82;21166;-81
2021/06/03 09:44:55;;;;;;;11.88;2.20;;;;;;;23.94;25.92;100440.39;1700140;82;21116;-80
2021/06/03 09:47:25;;;;;;;7.60;2.20;;;;;;;23.61;26.12;100442.34;1705285;84;21072;-80
2021/06/03 09:49:58;;;;;;;5.37;1.80;;;;;;;23.44;26.68;100441.59;1700602;81;26735;-77
2021/06/03 09:52:35;;;;;;;7.25;1.92;;;;;;;23.48;26.44;100447.56;1722269;81;21107;-76
2021/06/03 09:55:12;;;;;;;12.93;2.00;;;;;;;23.70;25.71;100447.91;1711459;82;21542;-78
2021/06/03 09:57:46;;;;;;;9.10;1.90;;;;;;;23.82;28.06;100444.17;1757603;79;21604;-76
2021/06/03 10:00:21;;;;;;;8.20;2.08;;;;;;;23.88;26.34;100447.68;1739057;80;21077;-76
2021/06/03 10:02:57;;;;;;;7.80;1.90;;;;;;;23.89;26.37;100453.41;1750607;79;21042;-76
2021/06/03 10:05:23;;;;;;;7.20;1.85;;;;;;;23.77;26.00;100458.52;1704918;81;21108;-76
2021/06/03 10:08:00;;;;;;;5.17;1.90;;;;;;;23.47;26.54;100462.84;1750535;80;21138;-74
2021/06/03 10:10:32;;;;;;;6.40;1.80;;;;;;;23.28;27.58;100453.30;1746109;81;21047;-73
2021/06/03 10:13:13;;;;;;;7.50;2.05;;;;;;;23.24;28.18;100457.60;1752412;80;21056;-74
2021/06/03 10:15:43;;;;;;;6.65;1.80;;;;;;;23.33;28.27;100457.78;1756106;80;21117;-74
2021/06/03 10:18:36;;;;;;;8.38;2.25;;;;;;;23.34;28.25;100463.03;1756786;80;21677;-74
2021/06/03 10:21:11;;;;;;;8.80;1.95;;;;;;;23.44;28.16;100456.38;1738472;81;21093;-75
2021/06/03 10:23:42;;;;;;;7.05;1.52;;;;;;;23.59;28.28;100464.47;1740322;81;21790;-74
2021/06/03 10:26:11;;;;;;;16.17;2.55;;;;;;;23.42;27.74;100454.30;1719756;80;21041;-74
2021/06/03 10:28:39;;;;;;;8.77;1.80;;;;;;;23.07;28.62;100463.53;1661488;85;21137;-73
2021/06/03 10:31:08;;;;;;;8.13;2.10;;;;;;;23.04;29.19;100477.23;1725413;82;21052;-72
2021/06/03 10:33:36;;;;;;;8.13;1.90;;;;;;;23.15;28.63;100467.78;1715688;79;21151;-74
2021/06/03 10:36:08;;;;;;;7.28;2.00;;;;;;;23.24;28.36;100462.12;1769213;79;21611;-74
2021/06/03 10:38:35;;;;;;;13.05;2.20;;;;;;;23.41;29.12;100455.30;1763981;79;21043;-74
2021/06/03 10:41:05;;;;;;;11.70;1.98;;;;;;;23.78;28.45;100456.17;1736545;81;21114;-76
2021/06/03 10:43:37;;;;;;;9.80;1.92;;;;;;;24.14;26.77;100453.94;1727378;81;26374;-73
2021/06/03 10:46:07;;;;;;;9.55;2.15;;;;;;;24.30;27.20;100447.53;1736591;81;21149;-73
2021/06/03 10:48:35;;;;;;;4.30;1.65;;;;;;;24.22;26.37;100458.13;1709414;81;21011;31
2021/06/03 10:51:07;;;;;;;11.60;1.90;;;;;;;24.03;26.84;100454.37;1671571;84;21074;-72
2021/06/03 10:53:35;;;;;;;15.53;2.47;;;;;;;24.01;26.98;100459.03;1681554;85;21823;-72
2021/06/03 10:56:12;;;;;;;10.95;1.40;;;;;;;24.04;26.48;100453.41;1663186;84;21025;-73
2021/06/03 10:58:40;;;;;;;7.03;1.90;;;;;;;23.98;26.22;100455.78;1696218;82;21574;-73
2021/06/03 11:01:14;;;;;;;6.80;1.75;;;;;;;23.78;26.67;100456.17;1694339;82;21084;-73
2021/06/03 11:04:01;;;;;;;7.42;2.00;;;;;;;23.60;27.43;100443.34;1687217;81;21596;-73
2021/06/03 11:06:30;;;;;;;28.20;2.37;;;;;;;23.59;28.06;100456.41;1713063;81;21081;-73
2021/06/03 11:09:05;;;;;;;9.13;2.00;;;;;;;23.49;28.56;100454.63;1725354;81;21387;-74
2021/06/03 11:14:17;;;;;;;9.08;2.12;;;;;;;23.10;29.31;100458.39;1786201;79;22633;-72
2021/06/03 11:16:54;;;;;;;6.30;2.08;;;;;;;22.96;29.29;100466.23;1742642;81;21238;-71
2021/06/03 11:19:27;;;;;;;6.92;2.30;;;;;;;23.10;29.90;100455.23;1701483;80;21036;-73
2021/06/03 11:22:00;;;;;;;2.85;1.82;;;;;;;23.55;29.85;100449.58;1631459;85;21115;-73
2021/06/03 11:24:36;;;;;;;12.45;2.27;;;;;;;23.97;28.88;100452.25;1610290;88;21356;-73
2021/06/03 11:27:13;;;;;;;77.78;70.17;;;;;;;24.26;29.40;100457.70;1593796;89;20994;-72
2021/06/03 11:29:51;;;;;;;9.00;2.15;;;;;;;24.30;29.52;100448.88;1599222;89;21087;-72
2021/06/03 11:32:34;;;;;;;3.77;1.87;;;;;;;24.12;27.93;100457.25;1603093;89;21146;-72
2021/06/03 11:35:05;;;;;;;6.58;2.15;;;;;;;23.94;27.88;100449.81;1643267;81;21643;-71
2021/06/03 11:37:40;;;;;;;7.85;2.30;;;;;;;23.91;29.52;100452.78;1685270;83;21112;-73
2021/06/03 11:40:20;;;;;;;8.63;2.10;;;;;;;24.17;28.12;100449.61;1683200;84;21101;-74
2021/06/03 11:43:06;;;;;;;9.10;1.95;;;;;;;24.51;27.56;100441.23;1693907;84;21052;-73
2021/06/03 11:45:40;;;;;;;8.50;2.22;;;;;;;24.56;27.29;100445.20;1679775;84;21197;-73
2021/06/03 11:48:19;;;;;;;6.37;1.87;;;;;;;24.68;27.26;100447.27;1694259;82;22074;-73
2021/06/03 11:50:54;;;;;;;8.95;1.90;;;;;;;24.77;25.29;100434.30;1692538;79;21051;-73